sensor_id;sensor_type;location;lat;lon;timestamp;P1;durP1;ratioP1;P2;durP2;ratioP2
16673;SDS011;8450;52.654;10.326;2022-09-21T05:55:21;5.40;;;3.07;;
16673;SDS011;8450;52.654;10.326;2022-09-21T05:58:20;2.87;;;2.67;;
16673;SDS011;8450;52.654;10.326;2022-09-21T06:01:20;3.43;;;3.13;;
16673;SDS011;8450;52.654;10.326;2022-09-21T06:03:55;4.23;;;3.90;;
16673;SDS011;8450;52.654;10.326;2022-09-21T06:06:23;4.60;;;4.20;;
16673;SDS011;8450;52.654;10.326;2022-09-21T06:08:49;4.20;;;3.90;;
16673;SDS011;8450;52.654;10.326;2022-09-21T06:11:14;5.03;;;4.53;;
16673;SDS011;8450;52.654;10.326;2022-09-21T06:13:41;4.47;;;4.17;;
16673;SDS011;8450;52.654;10.326;2022-09-21T06:16:06;5.30;;;4.80;;
16673;SDS011;8450;52.654;10.326;2022-09-21T06:18:38;4.07;;;3.77;;
16673;SDS011;8450;52.654;10.326;2022-09-21T06:21:06;3.77;;;3.47;;
16673;SDS011;8450;52.654;10.326;2022-09-21T06:23:32;4.03;;;3.70;;
16673;SDS011;8450;52.654;10.326;2022-09-21T06:25:58;3.70;;;3.40;;
16673;SDS011;8450;52.654;10.326;2022-09-21T06:28:24;4.47;;;3.37;;
16673;SDS011;8450;52.654;10.326;2022-09-21T06:30:50;3.70;;;3.40;;
16673;SDS011;8450;52.654;10.326;2022-09-21T06:33:17;3.00;;;2.80;;
16673;SDS011;8450;52.654;10.326;2022-09-21T06:35:50;3.30;;;3.00;;
16673;SDS011;8450;52.654;10.326;2022-09-21T06:38:17;3.10;;;2.90;;
16673;SDS011;8450;52.654;10.326;2022-09-21T06:40:43;3.23;;;2.90;;
16673;SDS011;8450;52.654;10.326;2022-09-21T06:43:08;3.00;;;2.80;;
16673;SDS011;8450;52.654;10.326;2022-09-21T06:45:34;4.23;;;2.80;;
16673;SDS011;8450;52.654;10.326;2022-09-21T06:47:59;2.90;;;2.60;;
16673;SDS011;8450;52.654;10.326;2022-09-21T06:50:25;2.80;;;2.60;;
16673;SDS011;8450;52.654;10.326;2022-09-21T06:52:51;3.03;;;2.80;;
16673;SDS011;8450;52.654;10.326;2022-09-21T06:55:16;3.53;;;2.87;;
16673;SDS011;8450;52.654;10.326;2022-09-21T06:57:42;4.07;;;3.17;;
16673;SDS011;8450;52.654;10.326;2022-09-21T07:00:09;2.87;;;2.67;;
16673;SDS011;8450;52.654;10.326;2022-09-21T07:02:36;2.77;;;2.50;;
16673;SDS011;8450;52.654;10.326;2022-09-21T07:05:02;3.57;;;2.87;;
16673;SDS011;8450;52.654;10.326;2022-09-21T07:07:28;2.60;;;2.40;;
16673;SDS011;8450;52.654;10.326;2022-09-21T07:09:55;2.97;;;2.77;;
16673;SDS011;8450;52.654;10.326;2022-09-21T07:12:22;2.50;;;2.30;;
16673;SDS011;8450;52.654;10.326;2022-09-21T07:14:50;2.67;;;2.47;;
16673;SDS011;8450;52.654;10.326;2022-09-21T07:17:16;3.20;;;2.53;;
16673;SDS011;8450;52.654;10.326;2022-09-21T07:19:41;2.70;;;2.50;;
16673;SDS011;8450;52.654;10.326;2022-09-21T07:22:07;2.87;;;2.67;;
16673;SDS011;8450;52.654;10.326;2022-09-21T07:24:32;2.63;;;2.43;;
16673;SDS011;8450;52.654;10.326;2022-09-21T07:26:58;2.50;;;2.23;;
16673;SDS011;8450;52.654;10.326;2022-09-21T07:29:23;2.60;;;2.20;;
16673;SDS011;8450;52.654;10.326;2022-09-21T07:31:49;3.60;;;2.27;;
16673;SDS011;8450;52.654;10.326;2022-09-21T07:34:15;4.77;;;2.57;;
16673;SDS011;8450;52.654;10.326;2022-09-21T07:36:41;2.43;;;2.20;;
16673;SDS011;8450;52.654;10.326;2022-09-21T07:39:07;2.60;;;2.40;;
16673;SDS011;8450;52.654;10.326;2022-09-21T07:41:34;3.23;;;2.60;;
16673;SDS011;8450;52.654;10.326;2022-09-21T07:44:00;3.17;;;2.33;;
16673;SDS011;8450;52.654;10.326;2022-09-21T07:46:25;4.27;;;2.40;;
16673;SDS011;8450;52.654;10.326;2022-09-21T07:48:54;3.40;;;2.60;;
16673;SDS011;8450;52.654;10.326;2022-09-21T07:51:20;3.60;;;2.50;;
16673;SDS011;8450;52.654;10.326;2022-09-21T07:53:47;2.60;;;2.37;;
16673;SDS011;8450;52.654;10.326;2022-09-21T07:56:17;2.43;;;2.23;;
16673;SDS011;8450;52.654;10.326;2022-09-21T07:58:44;2.50;;;2.10;;
16673;SDS011;8450;52.654;10.326;2022-09-21T08:01:28;3.73;;;2.60;;
16673;SDS011;8450;52.654;10.326;2022-09-21T08:03:55;2.90;;;2.70;;
16673;SDS011;8450;52.654;10.326;2022-09-21T08:06:22;4.53;;;2.77;;
16673;SDS011;8450;52.654;10.326;2022-09-21T08:08:49;3.97;;;2.73;;
16673;SDS011;8450;52.654;10.326;2022-09-21T08:11:16;2.83;;;2.50;;
16673;SDS011;8450;52.654;10.326;2022-09-21T08:13:43;5.10;;;2.77;;
16673;SDS011;8450;52.654;10.326;2022-09-21T08:16:09;3.10;;;2.80;;
16673;SDS011;8450;52.654;10.326;2022-09-21T08:18:36;3.30;;;2.83;;
16673;SDS011;8450;52.654;10.326;2022-09-21T08:21:03;3.00;;;2.70;;
16673;SDS011;8450;52.654;10.326;2022-09-21T08:23:29;3.50;;;3.03;;
16673;SDS011;8450;52.654;10.326;2022-09-21T08:26:01;3.43;;;2.87;;
16673;SDS011;8450;52.654;10.326;2022-09-21T08:28:29;3.17;;;2.70;;
16673;SDS011;8450;52.654;10.326;2022-09-21T08:30:58;3.77;;;3.13;;
16673;SDS011;8450;52.654;10.326;2022-09-21T08:33:24;4.23;;;3.17;;
16673;SDS011;8450;52.654;10.326;2022-09-21T08:35:55;3.57;;;2.70;;
16673;SDS011;8450;52.654;10.326;2022-09-21T08:38:21;2.90;;;2.60;;
16673;SDS011;8450;52.654;10.326;2022-09-21T08:40:47;2.90;;;2.60;;
16673;SDS011;8450;52.654;10.326;2022-09-21T08:43:58;2.90;;;2.70;;
16673;SDS011;8450;52.654;10.326;2022-09-21T08:46:21;3.70;;;2.70;;
16673;SDS011;8450;52.654;10.326;2022-09-21T08:48:51;3.00;;;2.53;;
16673;SDS011;8450;52.654;10.326;2022-09-21T08:51:21;4.07;;;3.00;;
16673;SDS011;8450;52.654;10.326;2022-09-21T08:53:55;3.40;;;3.10;;
16673;SDS011;8450;52.654;10.326;2022-09-21T08:56:25;3.37;;;3.03;;
16673;SDS011;8450;52.654;10.326;2022-09-21T08:58:52;3.23;;;2.70;;
16673;SDS011;8450;52.654;10.326;2022-09-21T09:01:29;3.77;;;3.10;;
16673;SDS011;8450;52.654;10.326;2022-09-21T09:04:31;3.60;;;2.70;;
16673;SDS011;8450;52.654;10.326;2022-09-21T09:07:04;3.47;;;2.90;;
16673;SDS011;8450;52.654;10.326;2022-09-21T09:12:49;3.00;;;2.70;;
16673;SDS011;8450;52.654;10.326;2022-09-21T09:18:17;3.30;;;3.00;;
16673;SDS011;8450;52.654;10.326;2022-09-21T09:20:56;2.77;;;2.43;;
16673;SDS011;8450;52.654;10.326;2022-09-21T09:23:25;3.10;;;2.33;;
16673;SDS011;8450;52.654;10.326;2022-09-21T09:26:08;2.83;;;2.17;;
16673;SDS011;8450;52.654;10.326;2022-09-21T09:28:44;3.73;;;2.53;;
16673;SDS011;8450;52.654;10.326;2022-09-21T09:31:17;2.73;;;2.53;;
16673;SDS011;8450;52.654;10.326;2022-09-21T09:33:56;3.83;;;2.43;;
16673;SDS011;8450;52.654;10.326;2022-09-21T09:36:43;2.83;;;2.53;;
16673;SDS011;8450;52.654;10.326;2022-09-21T09:39:13;5.20;;;2.70;;
16673;SDS011;8450;52.654;10.326;2022-09-21T09:41:52;4.07;;;2.47;;
16673;SDS011;8450;52.654;10.326;2022-09-21T09:44:36;4.20;;;2.50;;
16673;SDS011;8450;52.654;10.326;2022-09-21T09:50:15;4.23;;;2.30;;
16673;SDS011;8450;52.654;10.326;2022-09-21T09:52:44;4.47;;;2.20;;
16673;SDS011;8450;52.654;10.326;2022-09-21T09:55:18;2.60;;;1.97;;
16673;SDS011;8450;52.654;10.326;2022-09-21T09:57:47;3.33;;;2.13;;
16673;SDS011;8450;52.654;10.326;2022-09-21T10:00:14;2.60;;;2.00;;
16673;SDS011;8450;52.654;10.326;2022-09-21T10:02:52;1.90;;;1.67;;
16673;SDS011;8450;52.654;10.326;2022-09-21T10:07:45;4.10;;;2.00;;
16673;SDS011;8450;52.654;10.326;2022-09-21T10:18:44;4.10;;;1.87;;
16673;SDS011;8450;52.654;10.326;2022-09-21T10:21:23;2.87;;;1.60;;
16673;SDS011;8450;52.654;10.326;2022-09-21T10:24:01;2.43;;;1.67;;
16673;SDS011;8450;52.654;10.326;2022-09-21T10:26:35;2.00;;;1.70;;
16673;SDS011;8450;52.654;10.326;2022-09-21T10:29:21;1.73;;;1.63;;
16673;SDS011;8450;52.654;10.326;2022-09-21T10:32:00;2.30;;;1.50;;
16673;SDS011;8450;52.654;10.326;2022-09-21T10:34:58;2.23;;;1.80;;
16673;SDS011;8450;52.654;10.326;2022-09-21T10:37:37;2.73;;;2.00;;
16673;SDS011;8450;52.654;10.326;2022-09-21T10:42:42;3.07;;;1.93;;
16673;SDS011;8450;52.654;10.326;2022-09-21T10:45:21;2.53;;;1.70;;
16673;SDS011;8450;52.654;10.326;2022-09-21T10:55:35;2.27;;;1.90;;
16673;SDS011;8450;52.654;10.326;2022-09-21T10:58:02;2.93;;;1.80;;
16673;SDS011;8450;52.654;10.326;2022-09-21T11:00:39;2.77;;;1.70;;
16673;SDS011;8450;52.654;10.326;2022-09-21T11:03:25;4.77;;;2.10;;
16673;SDS011;8450;52.654;10.326;2022-09-21T11:06:15;3.93;;;1.70;;
16673;SDS011;8450;52.654;10.326;2022-09-21T11:08:51;3.17;;;1.60;;
16673;SDS011;8450;52.654;10.326;2022-09-21T11:14:36;2.20;;;1.50;;
16673;SDS011;8450;52.654;10.326;2022-09-21T11:17:16;1.83;;;1.40;;
16673;SDS011;8450;52.654;10.326;2022-09-21T11:19:52;5.47;;;1.80;;
16673;SDS011;8450;52.654;10.326;2022-09-21T11:25:07;3.53;;;1.60;;
16673;SDS011;8450;52.654;10.326;2022-09-21T11:27:43;2.67;;;1.40;;
16673;SDS011;8450;52.654;10.326;2022-09-21T11:30:14;2.00;;;1.10;;
16673;SDS011;8450;52.654;10.326;2022-09-21T11:32:58;2.47;;;1.20;;
16673;SDS011;8450;52.654;10.326;2022-09-21T11:35:55;2.33;;;1.40;;
16673;SDS011;8450;52.654;10.326;2022-09-21T11:57:26;3.10;;;1.57;;
16673;SDS011;8450;52.654;10.326;2022-09-21T12:05:50;2.33;;;1.47;;
16673;SDS011;8450;52.654;10.326;2022-09-21T12:11:40;3.27;;;1.43;;
16673;SDS011;8450;52.654;10.326;2022-09-21T12:14:42;2.10;;;1.50;;
16673;SDS011;8450;52.654;10.326;2022-09-21T12:22:39;2.40;;;1.30;;
16673;SDS011;8450;52.654;10.326;2022-09-21T12:25:15;2.70;;;1.97;;
16673;SDS011;8450;52.654;10.326;2022-09-21T12:27:53;6.03;;;3.43;;
16673;SDS011;8450;52.654;10.326;2022-09-21T12:30:28;2.70;;;2.40;;
16673;SDS011;8450;52.654;10.326;2022-09-21T12:33:04;3.00;;;2.07;;
16673;SDS011;8450;52.654;10.326;2022-09-21T12:35:53;3.40;;;2.00;;
16673;SDS011;8450;52.654;10.326;2022-09-21T12:44:04;4.33;;;1.73;;
16673;SDS011;8450;52.654;10.326;2022-09-21T12:47:07;2.50;;;1.50;;
16673;SDS011;8450;52.654;10.326;2022-09-21T12:49:43;1.67;;;1.30;;
16673;SDS011;8450;52.654;10.326;2022-09-21T12:52:14;1.67;;;1.10;;
16673;SDS011;8450;52.654;10.326;2022-09-21T12:54:52;1.33;;;1.20;;
16673;SDS011;8450;52.654;10.326;2022-09-21T13:00:38;1.20;;;1.10;;
16673;SDS011;8450;52.654;10.326;2022-09-21T13:03:16;1.63;;;1.13;;
16673;SDS011;8450;52.654;10.326;2022-09-21T13:06:00;1.20;;;1.00;;
16673;SDS011;8450;52.654;10.326;2022-09-21T13:08:49;1.53;;;1.00;;
16673;SDS011;8450;52.654;10.326;2022-09-21T13:11:15;2.40;;;1.13;;
16673;SDS011;8450;52.654;10.326;2022-09-21T13:13:52;3.63;;;1.27;;
16673;SDS011;8450;52.654;10.326;2022-09-21T13:16:26;2.73;;;1.40;;
16673;SDS011;8450;52.654;10.326;2022-09-21T13:19:18;3.87;;;1.40;;
16673;SDS011;8450;52.654;10.326;2022-09-21T13:21:44;2.33;;;1.20;;
16673;SDS011;8450;52.654;10.326;2022-09-21T13:24:26;2.47;;;1.30;;
16673;SDS011;8450;52.654;10.326;2022-09-21T13:26:54;1.77;;;1.30;;
16673;SDS011;8450;52.654;10.326;2022-09-21T13:29:25;1.50;;;1.10;;
16673;SDS011;8450;52.654;10.326;2022-09-21T13:34:23;2.03;;;1.10;;
16673;SDS011;8450;52.654;10.326;2022-09-21T13:44:53;2.13;;;1.30;;
16673;SDS011;8450;52.654;10.326;2022-09-21T13:47:43;2.20;;;1.20;;
16673;SDS011;8450;52.654;10.326;2022-09-21T13:50:27;2.23;;;1.70;;
16673;SDS011;8450;52.654;10.326;2022-09-21T13:53:00;4.63;;;2.40;;
16673;SDS011;8450;52.654;10.326;2022-09-21T13:55:32;3.67;;;2.07;;
16673;SDS011;8450;52.654;10.326;2022-09-21T13:58:03;3.43;;;1.60;;
16673;SDS011;8450;52.654;10.326;2022-09-21T14:00:40;1.90;;;1.33;;
16673;SDS011;8450;52.654;10.326;2022-09-21T14:06:04;2.43;;;1.47;;
16673;SDS011;8450;52.654;10.326;2022-09-21T14:08:38;2.20;;;1.70;;
16673;SDS011;8450;52.654;10.326;2022-09-21T14:11:15;2.67;;;1.20;;
16673;SDS011;8450;52.654;10.326;2022-09-21T14:13:46;2.00;;;1.23;;
16673;SDS011;8450;52.654;10.326;2022-09-21T14:24:34;2.37;;;1.30;;
16673;SDS011;8450;52.654;10.326;2022-09-21T14:29:57;3.70;;;1.50;;
16673;SDS011;8450;52.654;10.326;2022-09-21T14:32:31;2.43;;;1.60;;
16673;SDS011;8450;52.654;10.326;2022-09-21T14:35:10;1.30;;;0.90;;
16673;SDS011;8450;52.654;10.326;2022-09-21T14:37:47;2.80;;;1.23;;
16673;SDS011;8450;52.654;10.326;2022-09-21T14:40:36;4.10;;;1.30;;
16673;SDS011;8450;52.654;10.326;2022-09-21T14:43:13;1.80;;;1.00;;
16673;SDS011;8450;52.654;10.326;2022-09-21T14:48:59;2.33;;;1.30;;
16673;SDS011;8450;52.654;10.326;2022-09-21T14:55:08;2.53;;;1.20;;
16673;SDS011;8450;52.654;10.326;2022-09-21T15:00:40;1.60;;;1.30;;
16673;SDS011;8450;52.654;10.326;2022-09-21T15:15:31;2.60;;;1.50;;
16673;SDS011;8450;52.654;10.326;2022-09-21T15:18:20;1.40;;;1.23;;
16673;SDS011;8450;52.654;10.326;2022-09-21T15:20:53;3.37;;;1.40;;
16673;SDS011;8450;52.654;10.326;2022-09-21T15:23:26;3.13;;;2.30;;
16673;SDS011;8450;52.654;10.326;2022-09-21T15:25:56;4.23;;;2.90;;
16673;SDS011;8450;52.654;10.326;2022-09-21T15:28:28;3.63;;;2.20;;
16673;SDS011;8450;52.654;10.326;2022-09-21T15:31:03;3.07;;;1.80;;
16673;SDS011;8450;52.654;10.326;2022-09-21T15:33:34;2.40;;;1.80;;
16673;SDS011;8450;52.654;10.326;2022-09-21T15:36:02;3.67;;;1.80;;
16673;SDS011;8450;52.654;10.326;2022-09-21T15:38:29;2.43;;;1.40;;
16673;SDS011;8450;52.654;10.326;2022-09-21T15:40:56;2.93;;;1.47;;
16673;SDS011;8450;52.654;10.326;2022-09-21T15:43:22;2.83;;;1.60;;
16673;SDS011;8450;52.654;10.326;2022-09-21T15:45:52;1.93;;;1.40;;
16673;SDS011;8450;52.654;10.326;2022-09-21T15:48:21;2.50;;;1.80;;
16673;SDS011;8450;52.654;10.326;2022-09-21T15:50:49;4.00;;;2.17;;
16673;SDS011;8450;52.654;10.326;2022-09-21T15:53:21;3.20;;;1.67;;
16673;SDS011;8450;52.654;10.326;2022-09-21T15:55:56;2.10;;;1.40;;
16673;SDS011;8450;52.654;10.326;2022-09-21T16:01:01;1.97;;;1.33;;
16673;SDS011;8450;52.654;10.326;2022-09-21T16:03:39;2.63;;;1.50;;
16673;SDS011;8450;52.654;10.326;2022-09-21T16:08:51;2.03;;;1.30;;
16673;SDS011;8450;52.654;10.326;2022-09-21T16:11:31;2.93;;;1.47;;
16673;SDS011;8450;52.654;10.326;2022-09-21T16:28:29;2.87;;;1.37;;
16673;SDS011;8450;52.654;10.326;2022-09-21T16:30:44;2.47;;;1.33;;
16673;SDS011;8450;52.654;10.326;2022-09-21T16:38:44;1.53;;;1.20;;
16673;SDS011;8450;52.654;10.326;2022-09-21T16:41:20;2.80;;;1.20;;
16673;SDS011;8450;52.654;10.326;2022-09-21T16:43:47;1.40;;;1.10;;
